Time;durP1;ratioP1;P1;durP2;ratioP2;P2;SDS_P1;SDS_P2;PMS_P1;PMS_P2;Temp;Humidity;BMP_temperature;BMP_pressure;BME280_temperature;BME280_humidity;BME280_pressure;Samples;Min_cycle;Max_cycle;Signal;HPM_P1;HPM_P2
2023/05/28 00:01:17;;;;;;;5.47;3.70;;;;;;;13.82;79.46;98791.47;4112054;28;20215;-44
2023/05/28 00:03:20;;;;;;;5.40;3.92;;;;;;;13.83;79.35;98795.88;4113246;28;20296;-44
2023/05/28 00:05:22;;;;;;;7.80;3.72;;;;;;;13.80;79.85;98790.06;4111853;28;20206;-46
2023/05/28 00:07:24;;;;;;;6.57;4.20;;;;;;;13.69;79.73;98783.69;4111798;28;20231;-44
2023/05/28 00:09:26;;;;;;;6.05;3.75;;;;;;;13.64;80.46;98789.13;4110773;28;20211;-44
2023/05/28 00:11:28;;;;;;;5.93;3.92;;;;;;;13.56;80.88;98789.63;4109843;28;20760;-46
2023/05/28 00:13:30;;;;;;;5.78;4.13;;;;;;;13.46;80.46;98789.56;4097054;29;20601;-46
2023/05/28 00:15:31;;;;;;;6.32;3.97;;;;;;;13.52;80.45;98794.00;4095966;28;20266;-45
2023/05/28 00:17:33;;;;;;;5.43;3.72;;;;;;;13.41;80.72;98792.25;4114514;28;20954;-44
2023/05/28 00:19:35;;;;;;;5.07;3.75;;;;;;;13.44;80.33;98797.22;4113968;28;20222;-44
2023/05/28 00:21:37;;;;;;;3.10;2.83;;;;;;;13.45;80.25;98785.16;4112671;28;20203;-45
2023/05/28 00:23:39;;;;;;;6.65;4.13;;;;;;;13.48;80.02;98784.59;4111752;28;20230;-44
2023/05/28 00:25:40;;;;;;;9.32;5.03;;;;;;;13.61;80.33;98792.41;4096798;28;20215;-45
2023/05/28 00:27:42;;;;;;;8.02;5.00;;;;;;;13.57;80.06;98785.78;4112656;28;20229;-47
2023/05/28 00:29:44;;;;;;;5.90;4.28;;;;;;;13.62;80.12;98783.06;4095401;28;20211;-46
2023/05/28 00:31:46;;;;;;;3.65;3.33;;;;;;;13.50;80.08;98778.84;4108070;28;20713;-46
2023/05/28 00:33:47;;;;;;;7.93;3.80;;;;;;;13.49;79.79;98778.00;4111154;28;20615;-44
2023/05/28 00:35:54;;;;;;;5.60;4.63;;;;;;;13.51;79.99;98772.25;4112698;28;20258;-45
2023/05/28 00:37:57;;;;;;;5.65;4.05;;;;;;;13.49;80.22;98775.25;4111641;28;20214;-44
2023/05/28 00:39:58;;;;;;;10.43;4.57;;;;;;;13.51;80.09;98769.50;4114869;28;20573;-44
2023/05/28 00:42:02;;;;;;;8.93;4.28;;;;;;;13.38;80.10;98769.94;4111532;28;20553;-46
2023/05/28 00:44:05;;;;;;;6.03;4.70;;;;;;;13.34;80.68;98769.66;4110749;28;20215;-44
2023/05/28 00:46:07;;;;;;;6.97;4.47;;;;;;;13.39;80.46;98766.09;4111591;28;20203;-45
2023/05/28 00:48:09;;;;;;;5.05;3.85;;;;;;;13.35;80.39;98771.28;4113270;28;20249;-45
2023/05/28 00:50:16;;;;;;;5.90;3.92;;;;;;;13.30;80.16;98771.25;4110244;28;20210;-44
2023/05/28 00:52:18;;;;;;;5.30;3.80;;;;;;;13.22;80.57;98766.22;4110961;28;20259;-44
2023/05/28 00:54:20;;;;;;;6.55;4.00;;;;;;;13.24;80.53;98769.53;4109555;28;20211;-45
2023/05/28 00:56:26;;;;;;;4.93;4.25;;;;;;;13.26;80.91;98766.53;4112609;28;20658;-45
2023/05/28 00:58:28;;;;;;;4.15;3.72;;;;;;;13.28;81.28;98769.84;4110831;28;20217;-45
2023/05/28 01:00:29;;;;;;;6.28;4.20;;;;;;;13.23;81.96;98767.88;4108655;28;20215;-45
2023/05/28 01:02:31;;;;;;;4.45;3.70;;;;;;;13.13;81.46;98773.31;4110176;28;20278;-44
2023/05/28 01:04:33;;;;;;;4.63;4.20;;;;;;;13.09;82.46;98771.34;4111768;28;20579;-46
2023/05/28 01:06:38;;;;;;;5.25;4.78;;;;;;;13.03;82.73;98772.38;4110129;28;20230;-44
2023/05/28 01:08:40;;;;;;;4.65;3.90;;;;;;;13.02;82.82;98759.69;4112627;28;20659;-45
2023/05/28 01:10:42;;;;;;;5.22;3.90;;;;;;;12.97;82.86;98774.22;4109289;28;20203;-44
2023/05/28 01:12:44;;;;;;;5.25;4.10;;;;;;;12.94;82.83;98769.22;4107719;28;20731;-44
2023/05/28 01:14:49;;;;;;;5.90;4.95;;;;;;;12.95;82.73;98765.41;4111463;28;20207;-44
2023/05/28 01:16:51;;;;;;;5.40;4.38;;;;;;;12.93;83.46;98773.06;4111799;28;20210;-44
2023/05/28 01:18:55;;;;;;;6.78;4.60;;;;;;;12.91;83.40;98769.72;4112090;28;20206;-44
2023/05/28 01:20:56;;;;;;;8.77;5.10;;;;;;;12.91;83.29;98775.22;4105392;28;20223;-44
2023/05/28 01:23:03;;;;;;;4.53;4.13;;;;;;;12.91;83.57;98769.72;4105862;28;20802;-44
2023/05/28 01:25:09;;;;;;;5.75;5.25;;;;;;;12.93;83.25;98767.56;4106284;28;20266;-44
2023/05/28 01:27:12;;;;;;;7.35;5.85;;;;;;;12.82;83.43;98760.31;4107342;28;20259;-45
2023/05/28 01:29:15;;;;;;;5.95;4.93;;;;;;;12.80;83.43;98765.22;4095298;29;20608;-44
2023/05/28 01:31:17;;;;;;;5.68;5.15;;;;;;;12.78;83.82;98758.34;4110000;28;20227;-45
2023/05/28 01:33:20;;;;;;;5.13;4.63;;;;;;;12.80;83.94;98756.16;4112258;28;20653;-44
2023/05/28 01:35:22;;;;;;;5.22;4.78;;;;;;;12.70;84.48;98758.81;4106004;28;20222;-44
2023/05/28 01:37:24;;;;;;;6.63;4.82;;;;;;;12.60;84.39;98748.53;4111132;28;20214;-44
2023/05/28 01:39:27;;;;;;;5.30;4.57;;;;;;;12.56;84.72;98741.88;4095779;28;20290;-45
2023/05/28 01:41:30;;;;;;;6.68;5.70;;;;;;;12.51;84.70;98752.78;4094819;28;20267;-45
2023/05/28 01:43:32;;;;;;;7.38;4.47;;;;;;;12.49;84.99;98744.00;4115866;28;20245;-44
2023/05/28 01:45:34;;;;;;;6.70;5.57;;;;;;;12.46;84.98;98739.03;4110392;28;20198;-44
2023/05/28 01:47:36;;;;;;;5.50;4.68;;;;;;;12.46;84.90;98741.78;4111588;28;20235;-44
2023/05/28 01:49:38;;;;;;;6.28;4.70;;;;;;;12.45;84.92;98747.50;4111755;28;20614;-44
2023/05/28 01:51:40;;;;;;;5.28;4.78;;;;;;;12.44;85.19;98745.88;4112296;28;20278;-45
2023/05/28 01:53:42;;;;;;;6.05;4.20;;;;;;;12.49;85.59;98738.50;4107879;28;20231;-46
2023/05/28 01:55:44;;;;;;;4.78;4.15;;;;;;;12.49;85.57;98748.66;4107583;28;20636;-44
2023/05/28 01:57:45;;;;;;;5.55;4.97;;;;;;;12.42;85.58;98745.25;4094160;28;20759;-45
2023/05/28 01:59:47;;;;;;;4.80;4.35;;;;;;;12.33;85.93;98744.91;4091419;28;20652;-45
2023/05/28 02:01:49;;;;;;;5.72;5.18;;;;;;;12.27;86.05;98754.16;4104526;28;20214;-46
2023/05/28 02:03:51;;;;;;;9.70;4.40;;;;;;;12.26;86.16;98755.25;4125770;28;20214;-45
2023/05/28 02:05:53;;;;;;;5.43;4.90;;;;;;;12.26;85.97;98752.50;4124326;28;20223;-45
2023/05/28 02:07:56;;;;;;;7.38;4.30;;;;;;;12.26;86.15;98752.50;4108235;28;20815;-46
2023/05/28 02:09:58;;;;;;;5.65;4.53;;;;;;;12.27;86.29;98745.09;4095124;28;20215;-45
2023/05/28 02:12:03;;;;;;;4.03;3.25;;;;;;;12.14;86.57;98746.31;4112084;28;20221;-45
2023/05/28 02:14:05;;;;;;;3.97;3.58;;;;;;;12.12;86.83;98747.63;4124066;28;20615;-45
2023/05/28 02:16:07;;;;;;;6.40;4.97;;;;;;;12.15;86.57;98747.13;4109122;28;20672;-45
2023/05/28 02:18:10;;;;;;;5.60;4.00;;;;;;;12.14;86.96;98746.31;4110164;28;20681;-46
2023/05/28 02:20:13;;;;;;;5.00;4.05;;;;;;;12.06;86.96;98744.00;4125181;28;20211;-46
2023/05/28 02:22:14;;;;;;;7.38;4.20;;;;;;;11.97;86.73;98745.50;4109381;28;20278;-45
2023/05/28 02:24:16;;;;;;;4.63;4.05;;;;;;;11.96;87.22;98746.59;4108394;28;20210;-45
2023/05/28 02:26:18;;;;;;;5.85;4.00;;;;;;;11.98;87.22;98749.09;4109769;28;20658;-44
2023/05/28 02:28:20;;;;;;;5.38;4.57;;;;;;;11.92;87.18;98744.63;4103312;28;20642;-44
2023/05/28 02:30:21;;;;;;;5.18;4.65;;;;;;;11.90;87.82;98750.34;4107652;28;20743;-44
2023/05/28 02:32:23;;;;;;;5.55;5.07;;;;;;;11.86;87.57;98741.00;4111538;28;20277;-44
2023/05/28 02:34:25;;;;;;;10.15;5.05;;;;;;;11.88;87.43;98747.03;4091012;28;20215;-45
2023/05/28 02:36:27;;;;;;;8.15;4.40;;;;;;;11.97;87.09;98739.22;4108086;28;20214;-45
2023/05/28 02:38:28;;;;;;;5.88;5.18;;;;;;;11.90;87.16;98739.38;4104722;28;20567;-45
2023/05/28 02:40:30;;;;;;;4.20;3.80;;;;;;;11.96;87.41;98735.63;4109534;28;20220;-44
2023/05/28 02:42:32;;;;;;;6.57;3.70;;;;;;;11.87;87.40;98739.06;4110155;28;20235;-44
2023/05/28 02:44:33;;;;;;;4.65;4.25;;;;;;;11.79;87.58;98725.78;4110429;28;20223;-44
2023/05/28 02:46:35;;;;;;;5.55;4.03;;;;;;;11.82;87.76;98731.59;4095028;28;20216;-45
2023/05/28 02:48:37;;;;;;;5.13;4.40;;;;;;;11.74;87.74;98728.44;4109253;28;20250;-45
2023/05/28 02:50:39;;;;;;;6.18;4.70;;;;;;;11.70;88.09;98732.78;4107567;28;20803;-44
2023/05/28 02:52:41;;;;;;;6.57;5.22;;;;;;;11.67;88.44;98733.28;4111334;28;20237;-44
2023/05/28 02:54:43;;;;;;;4.75;4.32;;;;;;;11.70;88.59;98741.84;4109772;28;20759;-44
2023/05/28 02:56:44;;;;;;;6.90;4.82;;;;;;;11.67;88.42;98728.66;4110232;28;20211;-46
2023/05/28 02:58:46;;;;;;;4.47;4.07;;;;;;;11.67;88.44;98736.88;4108594;28;20593;-44
2023/05/28 03:00:48;;;;;;;5.88;4.43;;;;;;;11.66;88.60;98732.47;4108109;28;20215;-44
2023/05/28 03:02:49;;;;;;;5.13;4.53;;;;;;;11.66;88.57;98732.47;4126348;28;20237;-44
2023/05/28 03:04:52;;;;;;;4.82;3.50;;;;;;;11.68;88.60;98735.78;4124463;28;20548;-44
2023/05/28 03:06:54;;;;;;;5.60;4.65;;;;;;;11.60;88.54;98744.44;4108664;28;20214;-45
2023/05/28 03:08:56;;;;;;;5.50;3.75;;;;;;;11.56;88.54;98737.75;4097797;28;20203;-45
2023/05/28 03:10:58;;;;;;;6.68;4.55;;;;;;;11.56;88.60;98737.75;4112034;28;20483;-44
2023/05/28 03:12:59;;;;;;;5.50;4.30;;;;;;;11.51;89.04;98745.06;4113938;28;20289;-44
2023/05/28 03:15:04;;;;;;;4.80;4.40;;;;;;;11.48;88.97;98743.66;4114375;28;20736;-44
2023/05/28 03:17:05;;;;;;;4.35;3.95;;;;;;;11.51;89.16;98739.59;4127863;28;20665;-46
2023/05/28 03:19:07;;;;;;;7.22;6.53;;;;;;;11.48;89.28;98740.91;4114628;28;20215;-44
2023/05/28 03:21:09;;;;;;;5.53;4.22;;;;;;;11.39;89.49;98747.91;4098719;29;20337;-45
2023/05/28 03:23:11;;;;;;;7.28;4.75;;;;;;;11.35;89.64;98740.41;4107506;28;20281;-45
2023/05/28 03:25:12;;;;;;;4.93;4.53;;;;;;;11.31;89.72;98737.34;4113244;28;20758;-44
2023/05/28 03:27:14;;;;;;;6.15;5.10;;;;;;;11.28;89.69;98742.50;4112247;28;20305;-44
2023/05/28 03:29:16;;;;;;;7.38;5.15;;;;;;;11.29;89.76;98739.50;4114012;28;20640;-44
2023/05/28 03:31:19;;;;;;;4.72;4.28;;;;;;;11.22;89.89;98736.09;4111435;28;20219;-44
2023/05/28 03:33:21;;;;;;;6.45;4.53;;;;;;;11.20;90.03;98741.00;4114101;28;20226;-44
2023/05/28 03:35:22;;;;;;;6.90;4.75;;;;;;;11.26;89.87;98748.25;4113541;28;20689;-45
2023/05/28 03:37:26;;;;;;;4.80;4.32;;;;;;;11.22;90.00;98740.75;4113344;28;20203;-44
2023/05/28 03:39:28;;;;;;;5.05;4.55;;;;;;;11.14;89.87;98739.25;4109535;28;20289;-45
2023/05/28 03:41:30;;;;;;;4.85;4.38;;;;;;;11.12;89.93;98746.88;4111265;28;20207;-45
2023/05/28 03:43:33;;;;;;;9.38;4.25;;;;;;;11.17;90.07;98743.41;4112042;28;20234;-44
2023/05/28 03:45:35;;;;;;;6.80;4.55;;;;;;;11.09;90.33;98741.06;4129006;28;20668;-44
2023/05/28 03:47:37;;;;;;;8.82;4.47;;;;;;;11.03;90.20;98740.16;4127913;28;20707;-44
2023/05/28 03:49:39;;;;;;;7.20;4.68;;;;;;;11.09;90.51;98741.91;4096720;28;20215;-44
2023/05/28 03:51:40;;;;;;;5.50;4.07;;;;;;;11.10;89.98;98737.28;4111783;28;20286;-45
2023/05/28 03:53:42;;;;;;;4.35;3.95;;;;;;;11.10;90.32;98748.22;4114009;28;20666;-46
2023/05/28 03:55:44;;;;;;;5.35;4.85;;;;;;;11.06;90.73;98741.56;4114060;28;20592;-45
2023/05/28 03:57:46;;;;;;;5.00;4.50;;;;;;;11.08;90.87;98740.25;4111456;28;20573;-45
2023/05/28 03:59:48;;;;;;;6.07;4.50;;;;;;;11.02;90.88;98746.72;4113897;28;20717;-44
2023/05/28 04:01:50;;;;;;;6.80;4.68;;;;;;;11.03;91.01;98748.38;4111069;28;20241;-44
2023/05/28 04:03:53;;;;;;;5.22;4.47;;;;;;;11.03;91.11;98747.56;4111834;28;20207;-44
2023/05/28 04:05:55;;;;;;;4.90;4.43;;;;;;;11.00;90.90;98748.88;4111767;28;20305;-44
2023/05/28 04:07:57;;;;;;;5.07;4.57;;;;;;;11.06;90.96;98747.06;4109955;28;20281;-44
2023/05/28 04:09:58;;;;;;;4.68;4.15;;;;;;;11.05;91.04;98751.69;4117436;28;20652;-44
2023/05/28 04:12:01;;;;;;;5.70;3.90;;;;;;;11.05;91.18;98746.22;4112697;28;20257;-44
2023/05/28 04:14:03;;;;;;;7.20;4.15;;;;;;;11.05;91.58;98740.72;4115255;28;20261;-44
2023/05/28 04:16:05;;;;;;;5.68;4.25;;;;;;;10.99;91.55;98741.75;4125667;28;20214;-44
2023/05/28 04:18:07;;;;;;;4.75;3.78;;;;;;;10.99;91.40;98744.50;4111022;28;20252;-45
2023/05/28 04:20:10;;;;;;;8.13;4.85;;;;;;;11.06;91.61;98744.31;4112494;28;20214;-45
2023/05/28 04:22:11;;;;;;;5.80;4.90;;;;;;;11.13;91.65;98747.72;4126593;28;20309;-44
2023/05/28 04:24:13;;;;;;;6.55;4.07;;;;;;;11.09;91.60;98747.38;4110582;28;20413;-44
2023/05/28 04:26:16;;;;;;;7.18;4.25;;;;;;;11.04;91.45;98751.97;4112068;28;20242;-44
2023/05/28 04:28:17;;;;;;;5.13;4.55;;;;;;;11.06;92.09;98747.91;4128205;28;20233;-46
2023/05/28 04:30:22;;;;;;;5.05;4.55;;;;;;;11.07;91.98;98741.34;4129050;28;20260;-44
2023/05/28 04:32:24;;;;;;;5.45;4.15;;;;;;;11.16;91.97;98747.22;4112418;28;20792;-44
2023/05/28 04:34:27;;;;;;;5.95;4.85;;;;;;;11.21;91.70;98745.41;4113320;28;20209;-45
2023/05/28 04:36:32;;;;;;;5.22;4.70;;;;;;;11.21;91.96;98750.88;4111285;28;20207;-44
2023/05/28 04:38:34;;;;;;;4.70;4.20;;;;;;;11.21;92.09;98755.53;4110761;28;20238;-47
2023/05/28 04:40:36;;;;;;;7.50;4.97;;;;;;;11.21;92.20;98761.84;4110299;28;20211;-44
2023/05/28 04:42:41;;;;;;;5.40;4.90;;;;;;;11.24;92.19;98761.34;4113304;28;20238;-44
2023/05/28 04:44:44;;;;;;;6.22;5.68;;;;;;;11.31;92.15;98762.00;4112517;28;20207;-44
2023/05/28 04:46:46;;;;;;;5.60;4.88;;;;;;;11.36;92.04;98764.84;4112327;28;20723;-44
2023/05/28 04:48:48;;;;;;;4.88;4.35;;;;;;;11.36;91.81;98764.00;4112794;28;20231;-45
2023/05/28 04:50:50;;;;;;;5.90;4.75;;;;;;;11.43;92.45;98770.97;4113021;28;20311;-44
2023/05/28 04:52:52;;;;;;;6.68;5.38;;;;;;;11.48;92.60;98773.81;4094401;28;20582;-44
2023/05/28 04:54:53;;;;;;;7.05;5.28;;;;;;;11.53;92.51;98776.63;4111825;28;20434;-45
2023/05/28 04:56:55;;;;;;;5.55;4.75;;;;;;;11.60;92.46;98776.47;4112622;28;20211;-47
2023/05/28 04:58:57;;;;;;;4.90;4.40;;;;;;;11.64;92.01;98772.97;4112366;28;20273;-44
2023/05/28 05:00:59;;;;;;;5.65;4.55;;;;;;;11.78;91.64;98778.97;4110612;28;20660;-44
2023/05/28 05:03:01;;;;;;;5.82;5.22;;;;;;;11.74;92.55;98784.13;4112301;28;20743;-45
2023/05/28 05:05:04;;;;;;;7.88;5.38;;;;;;;11.75;92.24;98780.31;4111702;28;20234;-44
2023/05/28 05:07:05;;;;;;;6.05;5.45;;;;;;;11.85;92.13;98774.94;4110835;28;20269;-44
2023/05/28 05:09:08;;;;;;;8.50;5.50;;;;;;;11.89;91.39;98781.59;4095209;28;20240;-44
2023/05/28 05:11:09;;;;;;;6.47;5.65;;;;;;;11.99;91.56;98781.75;4110832;28;20213;-44
2023/05/28 05:13:11;;;;;;;5.68;5.10;;;;;;;12.04;91.65;98781.81;4108996;28;20336;-44
2023/05/28 05:15:13;;;;;;;5.30;4.80;;;;;;;12.05;92.26;98777.97;4126072;28;20206;-44
2023/05/28 05:17:15;;;;;;;5.90;4.63;;;;;;;12.11;92.15;98784.38;4110156;28;20270;-44
2023/05/28 05:19:16;;;;;;;6.40;5.63;;;;;;;12.15;91.53;98785.53;4097827;28;20250;-45
2023/05/28 05:21:18;;;;;;;5.30;4.75;;;;;;;12.24;91.08;98784.84;4110102;28;20210;-44
2023/05/28 05:23:20;;;;;;;5.30;4.70;;;;;;;12.25;91.28;98786.50;4110222;28;20230;-44
2023/05/28 05:25:21;;;;;;;6.45;4.57;;;;;;;12.32;90.94;98787.16;4110708;28;20301;-44
2023/05/28 05:27:23;;;;;;;5.70;4.10;;;;;;;12.43;90.53;98788.94;4107063;28;20207;-44
2023/05/28 05:29:25;;;;;;;5.32;3.97;;;;;;;12.32;92.24;98792.66;4110581;28;20258;-45
2023/05/28 05:31:26;;;;;;;5.80;5.30;;;;;;;12.57;92.31;98784.72;4110945;28;20203;-44
2023/05/28 05:33:28;;;;;;;5.82;4.78;;;;;;;12.78;93.49;98786.59;4112277;28;20301;-44
2023/05/28 05:35:30;;;;;;;5.25;4.75;;;;;;;12.87;93.21;98790.56;4095246;28;20251;-44
2023/05/28 05:37:31;;;;;;;7.25;5.22;;;;;;;12.89;92.91;98785.63;4109929;28;20780;-44
2023/05/28 05:39:33;;;;;;;11.52;5.10;;;;;;;12.90;91.30;98781.00;4109939;28;20697;-45
2023/05/28 05:41:35;;;;;;;6.10;5.43;;;;;;;13.00;90.19;98776.47;4112008;28;20657;-45
2023/05/28 05:43:37;;;;;;;7.63;5.15;;;;;;;13.04;90.42;98785.81;4111188;28;20242;-46
2023/05/28 05:45:38;;;;;;;7.25;5.22;;;;;;;13.22;90.82;98782.72;4111034;28;20229;-44
2023/05/28 05:47:40;;;;;;;11.52;4.85;;;;;;;13.28;88.56;98787.19;4105065;28;20208;-45
2023/05/28 05:49:42;;;;;;;5.80;5.25;;;;;;;13.38;88.53;98781.75;4111827;28;20286;-45
2023/05/28 05:51:44;;;;;;;5.40;4.43;;;;;;;13.39;87.72;98782.59;4095016;28;20219;-44
2023/05/28 05:53:46;;;;;;;7.60;4.93;;;;;;;13.48;87.32;98776.34;4110506;28;20289;-44
2023/05/28 05:55:47;;;;;;;6.45;4.22;;;;;;;13.70;86.39;98779.81;4112028;28;20206;-45
2023/05/28 05:57:49;;;;;;;6.53;4.25;;;;;;;13.76;84.59;98781.53;4108843;28;20215;-45
2023/05/28 05:59:51;;;;;;;6.15;3.67;;;;;;;13.70;85.47;98782.59;4110208;28;20265;-44
2023/05/28 06:01:53;;;;;;;5.63;4.15;;;;;;;13.85;85.82;98782.72;4110513;28;20218;-45
2023/05/28 06:03:55;;;;;;;6.63;4.18;;;;;;;14.17;85.42;98786.19;4095254;28;20600;-44
2023/05/28 06:05:57;;;;;;;5.97;4.05;;;;;;;14.37;83.80;98783.59;4096401;28;20272;-44
2023/05/28 06:07:59;;;;;;;5.15;4.28;;;;;;;14.21;85.48;98779.09;4112337;28;20230;-45
2023/05/28 06:10:01;;;;;;;14.02;4.20;;;;;;;14.61;84.34;98776.56;4105431;28;20223;-45
2023/05/28 06:12:03;;;;;;;5.82;3.22;;;;;;;14.92;82.97;98775.56;4111459;28;20210;-44
2023/05/28 06:14:05;;;;;;;7.50;4.07;;;;;;;15.20;82.79;98775.06;4127487;28;20217;-45
2023/05/28 06:16:06;;;;;;;10.63;3.83;;;;;;;15.38;81.01;98782.84;4110892;28;20207;-44
2023/05/28 06:18:08;;;;;;;6.40;3.80;;;;;;;15.54;79.82;98781.75;4109421;28;20242;-44
2023/05/28 06:20:11;;;;;;;7.15;3.58;;;;;;;15.69;78.96;98786.44;4111574;28;20219;-44
2023/05/28 06:22:13;;;;;;;4.20;3.22;;;;;;;15.46;78.93;98784.22;4110922;28;20234;-44
2023/05/28 06:24:17;;;;;;;6.43;4.15;;;;;;;15.14;80.81;98781.66;4111340;28;20661;-45
2023/05/28 06:26:19;;;;;;;5.25;3.70;;;;;;;15.50;80.43;98779.81;4107344;28;20261;-45
2023/05/28 06:28:20;;;;;;;9.30;4.65;;;;;;;15.78;79.35;98787.53;4110056;28;20242;-45
2023/05/28 06:30:23;;;;;;;6.22;3.40;;;;;;;15.93;78.75;98785.59;4111103;28;20624;-44
2023/05/28 06:32:24;;;;;;;3.00;2.67;;;;;;;16.08;79.27;98777.28;4109179;28;20234;-44
2023/05/28 06:34:26;;;;;;;6.80;3.35;;;;;;;16.30;77.64;98783.31;4108293;28;20214;-45
2023/05/28 06:36:28;;;;;;;3.97;3.47;;;;;;;16.46;76.90;98779.44;4106426;28;20697;-46
2023/05/28 06:38:30;;;;;;;9.38;4.00;;;;;;;16.64;75.73;98792.63;4091231;28;20273;-45
2023/05/28 06:40:32;;;;;;;4.13;2.90;;;;;;;16.80;74.88;98791.47;4109526;28;20262;-45
2023/05/28 06:42:34;;;;;;;5.25;3.70;;;;;;;16.85;73.87;98796.13;4124787;28;20300;-45
2023/05/28 06:44:36;;;;;;;9.02;3.60;;;;;;;16.94;73.35;98786.97;4128565;28;20679;-46
2023/05/28 06:46:37;;;;;;;6.18;3.78;;;;;;;16.93;72.63;98779.78;4090851;28;20318;-44
2023/05/28 06:48:39;;;;;;;4.38;3.70;;;;;;;17.07;72.92;98786.34;4093100;28;20223;-44
2023/05/28 06:50:41;;;;;;;4.70;3.63;;;;;;;17.21;73.12;98785.44;4107604;28;20280;-45
2023/05/28 06:52:42;;;;;;;4.10;3.38;;;;;;;17.33;72.63;98794.19;4110959;28;20233;-45
2023/05/28 06:54:45;;;;;;;5.07;3.60;;;;;;;17.42;72.04;98789.75;4105281;28;20736;-44
2023/05/28 06:56:46;;;;;;;6.28;3.65;;;;;;;17.62;71.94;98794.28;4108131;28;20937;-44
2023/05/28 06:58:50;;;;;;;4.72;3.05;;;;;;;17.79;71.58;98800.25;4112171;28;20214;-44
2023/05/28 07:00:52;;;;;;;6.85;4.38;;;;;;;18.00;71.64;98798.97;4101114;28;20289;-45
2023/05/28 07:02:54;;;;;;;5.63;3.08;;;;;;;18.07;70.79;98800.28;4106320;28;20237;-44
2023/05/28 07:04:55;;;;;;;5.07;4.22;;;;;;;18.30;70.39;98796.75;4108442;28;20346;-45
2023/05/28 07:06:58;;;;;;;5.13;3.60;;;;;;;17.88;69.71;98798.50;4108438;28;20206;-45
2023/05/28 07:09:00;;;;;;;8.23;3.70;;;;;;;18.40;69.76;98795.81;4109644;28;20231;-45
2023/05/28 07:11:02;;;;;;;5.45;4.05;;;;;;;18.18;69.13;98803.78;4111431;28;20234;-45
2023/05/28 07:13:03;;;;;;;4.40;3.10;;;;;;;18.22;69.02;98804.84;4110681;28;20669;-45
2023/05/28 07:15:06;;;;;;;5.60;3.28;;;;;;;18.73;69.16;98797.66;4113527;28;20210;-45
2023/05/28 07:17:08;;;;;;;7.82;4.22;;;;;;;18.46;70.08;98794.66;4111726;28;20210;-45
2023/05/28 07:19:09;;;;;;;3.38;2.92;;;;;;;18.94;68.65;98797.13;4111207;28;20656;-46
2023/05/28 07:21:11;;;;;;;8.15;3.13;;;;;;;19.02;68.90;98801.16;4111579;28;20756;-45
2023/05/28 07:23:13;;;;;;;4.35;3.20;;;;;;;19.20;68.19;98790.13;4110320;28;20273;-45
2023/05/28 07:25:14;;;;;;;4.72;2.70;;;;;;;19.36;67.63;98799.88;4094639;28;20215;-44
2023/05/28 07:27:16;;;;;;;4.43;2.90;;;;;;;19.36;67.06;98794.34;4110385;28;20213;-45
2023/05/28 07:29:18;;;;;;;4.13;2.70;;;;;;;19.60;66.50;98799.81;4110037;28;20226;-45
2023/05/28 07:31:20;;;;;;;5.50;2.88;;;;;;;19.72;66.32;98797.41;4109429;28;20214;-45
2023/05/28 07:33:22;;;;;;;5.88;3.22;;;;;;;19.83;66.49;98801.63;4125584;28;20234;-45
2023/05/28 07:35:24;;;;;;;4.72;3.90;;;;;;;19.89;65.00;98803.22;4110441;28;20550;-44
2023/05/28 07:37:26;;;;;;;5.32;3.50;;;;;;;19.99;64.94;98803.06;4093841;28;20214;-45
2023/05/28 07:39:28;;;;;;;3.80;3.03;;;;;;;20.05;63.97;98801.84;4109433;28;20205;-46
2023/05/28 07:41:30;;;;;;;5.30;3.35;;;;;;;20.16;63.35;98797.75;4110835;28;20207;-44
2023/05/28 07:43:31;;;;;;;4.63;3.03;;;;;;;20.11;63.85;98795.09;4107539;28;20235;-44
2023/05/28 07:45:34;;;;;;;3.60;2.78;;;;;;;20.23;63.74;98795.41;4111563;28;20719;-45
2023/05/28 07:47:35;;;;;;;6.47;3.35;;;;;;;20.35;63.28;98796.59;4108277;28;20241;-47
2023/05/28 07:49:37;;;;;;;4.32;2.97;;;;;;;20.66;61.80;98782.91;4109325;28;20763;-47
2023/05/28 07:51:39;;;;;;;8.02;3.50;;;;;;;20.75;61.06;98789.41;4107525;28;20210;-45
2023/05/28 07:53:41;;;;;;;4.10;3.05;;;;;;;20.87;60.37;98787.81;4102317;28;20234;-45
2023/05/28 07:55:43;;;;;;;5.30;3.45;;;;;;;20.39;59.72;98791.25;4112927;28;20258;-44
2023/05/28 07:57:45;;;;;;;4.45;3.10;;;;;;;20.71;60.69;98802.31;4111884;28;20233;-44
2023/05/28 07:59:46;;;;;;;6.00;2.83;;;;;;;21.01;60.06;98793.34;4110894;28;20241;-45
2023/05/28 08:01:48;;;;;;;5.38;2.60;;;;;;;21.24;59.51;98792.28;4112073;28;20678;-45
2023/05/28 08:03:54;;;;;;;5.90;3.97;;;;;;;21.26;59.06;98790.00;4107412;28;20238;-46
2023/05/28 08:05:56;;;;;;;4.03;2.42;;;;;;;20.68;60.01;98789.00;4112110;28;20612;-45
2023/05/28 08:07:59;;;;;;;3.65;3.33;;;;;;;20.44;58.07;98788.38;4113371;28;20672;-45
2023/05/28 08:10:02;;;;;;;4.72;2.67;;;;;;;20.87;60.71;98786.94;4112636;28;20237;-45
2023/05/28 08:12:03;;;;;;;5.68;2.92;;;;;;;21.25;58.94;98786.38;4095767;28;20211;-45
2023/05/28 08:14:05;;;;;;;3.63;2.92;;;;;;;21.49;58.97;98777.75;4111026;28;20214;-44
2023/05/28 08:16:10;;;;;;;5.65;3.58;;;;;;;21.92;57.00;98782.59;4113384;28;20253;-45
2023/05/28 08:18:12;;;;;;;3.33;3.03;;;;;;;21.75;56.90;98781.63;4110592;28;20206;-45
2023/05/28 08:20:14;;;;;;;3.80;3.33;;;;;;;22.18;56.19;98791.13;4113255;28;20203;-45
2023/05/28 08:22:15;;;;;;;6.18;3.17;;;;;;;22.20;53.93;98778.53;4125603;28;20316;-46
2023/05/28 08:24:18;;;;;;;4.15;3.20;;;;;;;22.50;55.68;98782.50;4111178;28;20206;-45
2023/05/28 08:26:21;;;;;;;6.07;3.05;;;;;;;22.68;55.12;98773.03;4106869;28;20242;-45
2023/05/28 08:28:24;;;;;;;5.50;3.58;;;;;;;22.67;55.02;98776.97;4094808;28;20218;-45
2023/05/28 08:30:26;;;;;;;4.78;2.45;;;;;;;22.85;54.10;98773.13;4109776;28;20210;-45
2023/05/28 08:32:27;;;;;;;3.95;3.28;;;;;;;22.85;53.62;98773.94;4089501;28;20286;-47
2023/05/28 08:34:29;;;;;;;5.18;3.60;;;;;;;22.93;55.06;98763.94;4096998;28;20222;-45
2023/05/28 08:36:31;;;;;;;4.50;3.85;;;;;;;23.00;52.21;98762.34;4111869;28;20758;-45
2023/05/28 08:38:33;;;;;;;5.90;3.08;;;;;;;22.90;53.47;98759.81;4114504;28;20206;-44
2023/05/28 08:40:40;;;;;;;6.47;2.92;;;;;;;23.17;52.76;98753.19;4114826;28;20239;-45
2023/05/28 08:42:42;;;;;;;4.53;2.92;;;;;;;23.28;53.23;98754.50;4109957;28;20249;-46
2023/05/28 08:44:44;;;;;;;3.72;2.80;;;;;;;23.19;52.05;98756.47;4124195;28;20229;-46
2023/05/28 08:46:46;;;;;;;6.80;3.00;;;;;;;22.85;52.12;98757.19;4108650;28;20618;-47
2023/05/28 08:48:48;;;;;;;5.15;3.15;;;;;;;23.47;52.80;98752.25;4109428;28;20238;-44
2023/05/28 08:50:53;;;;;;;4.30;3.05;;;;;;;23.92;52.48;98749.63;4110648;28;20206;-44
2023/05/28 08:52:56;;;;;;;3.47;2.97;;;;;;;23.92;52.17;98742.41;4110379;28;20235;-44
2023/05/28 08:54:59;;;;;;;5.13;2.85;;;;;;;23.69;50.33;98746.50;4108476;28;20203;-44
2023/05/28 08:57:00;;;;;;;4.53;2.90;;;;;;;23.35;48.23;98738.94;4111975;28;20214;-44
2023/05/28 08:59:03;;;;;;;4.15;3.20;;;;;;;23.88;50.88;98741.41;4111377;28;20257;-44
2023/05/28 09:01:08;;;;;;;8.00;4.38;;;;;;;23.73;50.31;98737.94;4105195;28;20206;-44
2023/05/28 09:03:10;;;;;;;4.68;2.72;;;;;;;23.66;47.47;98741.56;4110802;28;20334;-44
2023/05/28 09:05:12;;;;;;;5.97;3.85;;;;;;;23.60;48.03;98734.50;4106438;28;20249;-43
2023/05/28 09:07:14;;;;;;;3.78;2.47;;;;;;;23.97;49.39;98731.03;4111189;28;20254;-44
2023/05/28 09:09:17;;;;;;;3.42;3.08;;;;;;;24.04;48.96;98735.78;4109859;28;20230;-44
2023/05/28 09:11:19;;;;;;;5.07;2.88;;;;;;;23.31;48.95;98737.13;4113220;28;20676;-46
2023/05/28 09:13:20;;;;;;;3.85;2.67;;;;;;;24.12;49.17;98729.34;4109763;28;20233;-44
2023/05/28 09:15:22;;;;;;;4.68;3.22;;;;;;;24.60;49.79;98732.66;4111214;28;20230;-46
2023/05/28 09:17:37;;;;;;;3.38;3.08;;;;;;;24.26;49.22;98738.34;4111183;28;20557;-44
2023/05/28 09:19:39;;;;;;;5.78;3.30;;;;;;;23.82;49.11;98732.34;4110176;28;20273;-44
2023/05/28 09:22:01;;;;;;;8.88;2.97;;;;;;;24.51;49.45;98731.88;4111129;28;20214;-44
2023/05/28 09:24:03;;;;;;;4.32;3.17;;;;;;;24.88;47.56;98717.06;4111351;28;20210;-45
2023/05/28 09:26:09;;;;;;;4.57;2.95;;;;;;;24.77;48.81;98731.78;4112152;28;20202;-46
2023/05/28 09:28:15;;;;;;;5.20;3.60;;;;;;;24.36;46.54;98732.41;4125633;28;20300;-44
2023/05/28 09:30:16;;;;;;;4.15;2.72;;;;;;;24.81;46.33;98725.16;4111855;28;20233;-46
2023/05/28 09:32:20;;;;;;;4.20;2.88;;;;;;;24.28;43.72;98729.66;4110931;28;20297;-44
2023/05/28 09:34:29;;;;;;;4.95;3.10;;;;;;;24.11;42.77;98724.91;4112575;28;20241;-47
2023/05/28 09:36:31;;;;;;;3.58;2.42;;;;;;;24.03;42.03;98722.97;4107671;28;20300;-44